createdAt,value
2018-08-31T00:02:32.352Z,15.95
2018-08-31T00:05:41.895Z,15.93
2018-08-31T00:09:25.768Z,15.84
2018-08-31T00:12:11.987Z,15.84
2018-08-31T00:14:41.097Z,15.87
2018-08-31T00:17:10.048Z,15.91
2018-08-31T00:19:38.943Z,15.91
2018-08-31T00:22:07.958Z,15.88
2018-08-31T00:25:52.100Z,15.77
2018-08-31T00:28:29.276Z,15.77
2018-08-31T00:33:17.134Z,15.77
2018-08-31T00:38:00.746Z,15.94
2018-08-31T00:41:20.226Z,15.94
2018-08-31T00:44:54.985Z,15.88
2018-08-31T00:47:24.031Z,15.90
2018-08-31T00:49:53.067Z,15.88
2018-08-31T00:52:22.060Z,15.90
2018-08-31T00:54:57.397Z,15.96
2018-08-31T00:57:26.324Z,15.79
2018-08-31T00:59:55.274Z,15.81
2018-08-31T01:02:24.275Z,15.81
2018-08-31T01:04:53.572Z,15.84
2018-08-31T01:07:23.171Z,15.88
2018-08-31T01:09:52.213Z,15.90
2018-08-31T01:12:21.136Z,15.87
2018-08-31T01:14:50.052Z,15.86
2018-08-31T01:17:18.980Z,15.86
2018-08-31T01:19:48.311Z,15.87
2018-08-31T01:22:17.661Z,15.79
2018-08-31T01:24:46.933Z,15.70
2018-08-31T01:27:16.255Z,15.68
2018-08-31T01:29:45.206Z,15.61
2018-08-31T01:32:14.198Z,15.61
2018-08-31T01:34:44.030Z,15.64
2018-08-31T01:37:12.976Z,15.64
2018-08-31T01:39:41.873Z,15.66
2018-08-31T01:42:11.144Z,15.61
2018-08-31T01:44:40.177Z,15.50
2018-08-31T01:47:09.126Z,15.49
2018-08-31T01:49:38.124Z,15.50
2018-08-31T01:52:07.057Z,15.53
2018-08-31T01:54:35.983Z,15.61
2018-08-31T01:57:05.264Z,15.64
2018-08-31T01:59:34.241Z,15.65
2018-08-31T02:02:03.181Z,15.68
2018-08-31T02:04:32.143Z,15.67
2018-08-31T02:07:01.170Z,15.66
2018-08-31T02:09:30.040Z,15.63
2018-08-31T02:11:59.972Z,15.66
2018-08-31T02:14:28.905Z,15.70
2018-08-31T02:16:57.832Z,15.63
2018-08-31T02:19:26.832Z,15.61
2018-08-31T02:21:55.807Z,15.63
2018-08-31T02:24:24.764Z,15.65
2018-08-31T02:26:53.803Z,15.69
2018-08-31T02:29:22.745Z,15.68
2018-08-31T02:31:51.692Z,15.67
2018-08-31T02:34:20.611Z,15.71
2018-08-31T02:36:49.524Z,15.71
2018-08-31T02:39:18.504Z,15.69
2018-08-31T02:41:47.377Z,15.70
2018-08-31T02:44:16.358Z,15.74
2018-08-31T02:46:45.247Z,15.61
2018-08-31T02:49:14.224Z,15.69
2018-08-31T02:51:43.200Z,15.71
2018-08-31T02:54:12.110Z,15.73
2018-08-31T02:56:40.995Z,15.70
2018-08-31T02:59:09.985Z,15.53
2018-08-31T03:01:38.936Z,15.65
2018-08-31T03:04:07.874Z,15.70
2018-08-31T03:06:36.844Z,15.65
2018-08-31T03:09:06.366Z,15.68
2018-08-31T03:11:35.456Z,15.62
2018-08-31T03:14:04.320Z,15.56
2018-08-31T03:16:33.360Z,15.52
2018-08-31T03:19:02.259Z,15.56
2018-08-31T03:21:31.209Z,15.59
2018-08-31T03:24:00.277Z,15.58
2018-08-31T03:26:29.276Z,15.58
2018-08-31T03:28:58.180Z,15.55
2018-08-31T03:31:27.088Z,15.60
2018-08-31T03:33:59.036Z,15.57
2018-08-31T03:36:28.012Z,15.39
2018-08-31T03:38:56.920Z,15.39
2018-08-31T03:41:25.844Z,15.52
2018-08-31T03:43:54.749Z,15.55
2018-08-31T03:46:23.659Z,15.59
2018-08-31T03:48:52.564Z,15.37
2018-08-31T03:51:21.522Z,15.53
2018-08-31T03:53:50.435Z,15.51
2018-08-31T03:56:19.304Z,15.53
2018-08-31T03:58:48.236Z,15.59
2018-08-31T04:01:17.171Z,15.65
2018-08-31T04:03:46.166Z,15.64
2018-08-31T04:06:15.079Z,15.64
2018-08-31T04:08:44.022Z,15.58
2018-08-31T04:11:12.968Z,15.60
2018-08-31T04:13:41.877Z,15.55
2018-08-31T04:16:10.777Z,15.57
2018-08-31T04:18:39.709Z,15.58
2018-08-31T04:21:08.618Z,15.58
2018-08-31T04:23:37.542Z,15.58
2018-08-31T04:26:06.472Z,15.52
2018-08-31T04:28:35.504Z,15.36
2018-08-31T04:31:04.399Z,15.43
2018-08-31T04:33:33.292Z,15.34
2018-08-31T04:36:02.262Z,15.31
2018-08-31T04:38:31.180Z,15.39
2018-08-31T04:41:00.113Z,15.35
2018-08-31T04:43:29.031Z,15.34
2018-08-31T04:45:58.048Z,15.22
2018-08-31T04:48:27.040Z,15.28
2018-08-31T04:50:56.028Z,15.31
2018-08-31T04:53:24.959Z,15.28
2018-08-31T04:55:53.866Z,15.41
2018-08-31T04:58:22.785Z,15.41
2018-08-31T05:00:51.748Z,15.46
2018-08-31T05:03:20.679Z,15.53
2018-08-31T05:05:49.627Z,15.44
2018-08-31T05:08:18.523Z,15.40
2018-08-31T05:10:47.450Z,15.44
2018-08-31T05:13:16.557Z,15.36
2018-08-31T05:15:45.489Z,15.17
2018-08-31T05:18:14.488Z,15.04
2018-08-31T05:20:43.483Z,15.02
2018-08-31T05:23:12.403Z,15.13
2018-08-31T05:25:41.335Z,15.33
2018-08-31T05:28:10.247Z,15.26
2018-08-31T05:30:39.266Z,15.31
2018-08-31T05:33:08.171Z,15.45
2018-08-31T05:35:37.133Z,15.40
2018-08-31T05:38:06.105Z,15.44
2018-08-31T05:40:35.034Z,15.46
2018-08-31T05:43:05.102Z,15.39
2018-08-31T05:45:34.089Z,15.30
2018-08-31T05:48:02.924Z,15.27
2018-08-31T05:50:31.840Z,15.32
2018-08-31T05:53:00.818Z,15.26
2018-08-31T05:55:29.743Z,15.29
2018-08-31T05:57:58.664Z,15.29
2018-08-31T06:00:27.645Z,15.28
2018-08-31T06:02:56.522Z,15.27
2018-08-31T06:05:25.555Z,15.24
2018-08-31T06:07:54.462Z,15.28
2018-08-31T06:10:23.387Z,15.38
2018-08-31T06:12:52.307Z,15.44
2018-08-31T06:15:21.310Z,15.50
2018-08-31T06:17:50.272Z,15.53
2018-08-31T06:20:19.229Z,15.59
2018-08-31T06:22:48.163Z,15.64
2018-08-31T06:25:17.118Z,15.70
2018-08-31T06:27:46.016Z,15.75
2018-08-31T06:30:14.948Z,15.85
2018-08-31T06:32:44.053Z,15.89
2018-08-31T06:35:12.930Z,15.87
2018-08-31T06:37:41.924Z,15.91
2018-08-31T06:40:10.816Z,16.00
2018-08-31T06:42:42.606Z,16.05
2018-08-31T06:45:11.566Z,16.02
2018-08-31T06:47:40.537Z,15.85
2018-08-31T06:50:09.531Z,15.83
2018-08-31T06:52:39.289Z,15.87
2018-08-31T06:55:08.215Z,15.93
2018-08-31T06:57:37.191Z,15.95
2018-08-31T07:00:06.940Z,16.01
2018-08-31T07:02:37.032Z,16.08
2018-08-31T07:05:06.521Z,16.12
2018-08-31T07:07:35.477Z,16.12
2018-08-31T07:10:04.779Z,16.18
2018-08-31T07:12:33.859Z,16.33
2018-08-31T07:15:02.717Z,16.50
2018-08-31T07:17:31.703Z,16.73
2018-08-31T07:20:00.613Z,17.01
2018-08-31T07:22:29.633Z,17.14
2018-08-31T07:24:58.673Z,17.47
2018-08-31T07:27:27.679Z,17.77
2018-08-31T07:29:56.707Z,17.90
2018-08-31T07:32:25.674Z,18.19
2018-08-31T07:34:54.614Z,18.13
2018-08-31T07:37:23.558Z,18.17
2018-08-31T07:39:52.606Z,18.45
2018-08-31T07:42:21.571Z,18.62
2018-08-31T07:44:50.439Z,18.63
2018-08-31T07:47:19.375Z,18.62
2018-08-31T07:49:48.327Z,18.64
2018-08-31T07:52:17.243Z,18.59
2018-08-31T07:54:46.235Z,18.33
2018-08-31T07:57:15.203Z,18.66
2018-08-31T07:59:44.159Z,18.66
2018-08-31T08:02:15.234Z,18.74
2018-08-31T08:04:44.257Z,18.83
2018-08-31T08:07:13.398Z,18.59
2018-08-31T08:09:42.419Z,18.32
2018-08-31T08:12:11.461Z,18.11
2018-08-31T08:14:40.474Z,18.20
2018-08-31T08:17:09.445Z,18.20
2018-08-31T08:26:25.795Z,18.22
2018-08-31T08:28:54.793Z,18.16
2018-08-31T08:31:23.772Z,18.15
2018-08-31T08:33:52.696Z,18.25
2018-08-31T08:36:21.611Z,18.17
2018-08-31T08:38:50.678Z,18.06
2018-08-31T08:41:19.586Z,18.22
2018-08-31T08:43:48.504Z,18.21
2018-08-31T08:46:17.496Z,18.14
2018-08-31T08:48:46.447Z,18.10
2018-08-31T08:51:15.282Z,18.09
2018-08-31T08:53:44.224Z,18.05
2018-08-31T08:56:13.180Z,17.90
2018-08-31T08:58:42.087Z,18.03
2018-08-31T09:01:11.092Z,18.08
2018-08-31T09:03:40.002Z,18.25
2018-08-31T09:06:08.977Z,18.37
2018-08-31T09:08:37.888Z,18.45
2018-08-31T09:11:06.857Z,18.27
2018-08-31T09:13:35.834Z,18.01
2018-08-31T09:16:04.769Z,18.08
2018-08-31T09:18:33.947Z,18.06
2018-08-31T09:21:02.799Z,18.11
2018-08-31T09:23:31.781Z,17.97
2018-08-31T09:26:03.300Z,17.93
2018-08-31T09:28:32.330Z,17.74
2018-08-31T09:31:01.918Z,17.63
2018-08-31T09:33:30.882Z,17.77
2018-08-31T09:35:59.831Z,17.63
2018-08-31T09:38:28.783Z,17.49
2018-08-31T09:40:57.669Z,17.28
2018-08-31T09:43:26.704Z,17.29
2018-08-31T09:45:55.653Z,17.30
2018-08-31T09:48:24.583Z,17.31
2018-08-31T09:50:53.591Z,17.49
2018-08-31T09:53:22.564Z,17.52
2018-08-31T09:55:51.505Z,17.53
2018-08-31T09:58:20.420Z,17.58
2018-08-31T10:00:59.499Z,17.72
2018-08-31T10:03:28.478Z,17.56
2018-08-31T10:05:57.639Z,17.69
2018-08-31T10:08:27.927Z,17.87
2018-08-31T10:10:57.074Z,17.84
2018-08-31T10:13:26.492Z,17.73
2018-08-31T10:15:56.606Z,17.46
2018-08-31T10:18:27.647Z,17.59
2018-08-31T10:20:56.664Z,17.61
2018-08-31T10:23:25.583Z,17.68
2018-08-31T10:25:54.523Z,17.75
2018-08-31T10:28:23.592Z,17.49
2018-08-31T10:30:52.575Z,17.52
2018-08-31T10:33:21.482Z,17.54
2018-08-31T10:35:50.336Z,17.69
2018-08-31T10:38:19.307Z,17.78
2018-08-31T10:40:48.303Z,17.60
2018-08-31T10:43:17.215Z,17.77
2018-08-31T10:45:46.248Z,17.87
2018-08-31T10:48:15.202Z,17.90
2018-08-31T10:50:44.175Z,17.95
2018-08-31T10:53:13.164Z,17.85
2018-08-31T10:55:42.067Z,17.95
2018-08-31T10:58:11.031Z,17.90
2018-08-31T11:00:40.045Z,17.94
2018-08-31T11:03:09.121Z,17.99
2018-08-31T11:05:38.083Z,17.97
2018-08-31T11:08:07.006Z,17.66
2018-08-31T11:10:36.001Z,17.75
2018-08-31T11:13:05.023Z,17.88
2018-08-31T11:15:33.855Z,17.98
2018-08-31T11:18:02.804Z,17.83
2018-08-31T11:20:31.753Z,17.90
2018-08-31T11:23:00.654Z,17.86
2018-08-31T11:25:29.658Z,18.02
2018-08-31T11:27:58.621Z,18.13
2018-08-31T11:30:27.650Z,18.28
2018-08-31T11:32:56.662Z,18.33
2018-08-31T11:35:25.608Z,18.19
2018-08-31T11:37:54.561Z,18.17
2018-08-31T11:40:23.576Z,18.09
2018-08-31T11:42:52.525Z,18.05
2018-08-31T11:45:21.453Z,17.88
2018-08-31T11:47:50.406Z,17.94
2018-08-31T11:50:19.438Z,17.86
2018-08-31T11:52:48.524Z,17.95
2018-08-31T11:55:17.542Z,18.11
2018-08-31T11:57:46.566Z,17.90
2018-08-31T12:00:16.528Z,18.04
2018-08-31T12:02:45.448Z,18.27
2018-08-31T12:05:14.368Z,18.18
2018-08-31T12:07:43.343Z,18.16
2018-08-31T12:10:12.289Z,18.39
2018-08-31T12:12:41.244Z,18.46
2018-08-31T12:15:10.412Z,18.48
2018-08-31T12:17:39.460Z,18.49
2018-08-31T12:20:08.622Z,18.52
2018-08-31T12:22:37.584Z,18.54
2018-08-31T12:25:07.161Z,18.55
2018-08-31T12:27:36.088Z,18.55
2018-08-31T12:30:05.121Z,18.40
2018-08-31T12:32:34.024Z,18.45
2018-08-31T12:35:02.912Z,18.49
2018-08-31T12:37:31.862Z,18.58
2018-08-31T12:40:00.818Z,18.53
2018-08-31T12:42:30.112Z,18.56
2018-08-31T12:44:59.139Z,18.54
2018-08-31T12:47:28.100Z,18.65
2018-08-31T12:49:57.248Z,18.71
2018-08-31T12:52:26.206Z,18.78
2018-08-31T12:54:55.282Z,18.75
2018-08-31T12:57:24.362Z,18.75
2018-08-31T13:00:00.616Z,18.90
2018-08-31T13:02:31.355Z,18.93
2018-08-31T13:05:00.984Z,18.95
2018-08-31T13:07:29.901Z,18.95
2018-08-31T13:09:58.841Z,18.96
2018-08-31T13:12:27.832Z,19.08
2018-08-31T13:14:56.946Z,19.03
2018-08-31T13:17:25.883Z,19.04
2018-08-31T13:19:54.838Z,18.99
2018-08-31T13:22:23.860Z,18.85
2018-08-31T13:24:52.811Z,18.79
2018-08-31T13:27:21.971Z,18.92
2018-08-31T13:29:50.903Z,18.85
2018-08-31T13:32:19.828Z,18.87
2018-08-31T13:34:48.889Z,18.96
2018-08-31T13:37:17.880Z,18.97
2018-08-31T13:39:46.805Z,19.00
2018-08-31T13:42:15.768Z,18.98
2018-08-31T13:44:44.679Z,18.77
2018-08-31T13:47:13.607Z,18.74
2018-08-31T13:49:42.651Z,18.72
2018-08-31T13:52:11.548Z,18.88
2018-08-31T13:54:40.528Z,18.79
2018-08-31T13:57:09.473Z,18.74
2018-08-31T13:59:38.394Z,18.48
2018-08-31T14:02:07.427Z,18.55
2018-08-31T14:04:36.364Z,18.59
2018-08-31T14:07:05.351Z,18.62
2018-08-31T14:09:34.265Z,18.69
2018-08-31T14:12:03.255Z,18.75
2018-08-31T14:14:32.149Z,18.63
2018-08-31T14:17:01.263Z,18.61
2018-08-31T14:19:30.436Z,18.91
2018-08-31T14:21:59.353Z,18.94
2018-08-31T14:24:28.447Z,18.97
2018-08-31T14:26:57.342Z,18.96
2018-08-31T14:29:26.393Z,18.93
2018-08-31T14:31:55.284Z,18.90
2018-08-31T14:34:24.193Z,18.86
2018-08-31T14:36:53.090Z,18.75
2018-08-31T14:39:22.562Z,18.73
2018-08-31T14:41:51.554Z,18.75
2018-08-31T14:44:21.736Z,18.69
2018-08-31T14:46:50.732Z,18.75
2018-08-31T14:49:19.772Z,18.84
2018-08-31T14:51:48.666Z,18.93
2018-08-31T14:54:17.704Z,18.91
2018-08-31T14:56:46.886Z,18.90
2018-08-31T14:59:15.947Z,18.93
2018-08-31T15:01:44.868Z,18.94
2018-08-31T15:04:13.811Z,18.96
2018-08-31T15:06:42.740Z,18.96
2018-08-31T15:09:12.538Z,18.87
2018-08-31T15:11:41.521Z,18.84
2018-08-31T15:14:10.455Z,18.86
2018-08-31T15:16:39.412Z,18.82
2018-08-31T15:19:08.397Z,18.72
2018-08-31T15:21:37.260Z,18.88
2018-08-31T15:24:06.270Z,18.94
2018-08-31T15:26:35.219Z,18.93
2018-08-31T15:29:07.088Z,18.95
2018-08-31T15:31:36.113Z,18.95
2018-08-31T15:34:04.908Z,19.10
2018-08-31T15:36:33.821Z,19.21
2018-08-31T15:39:02.767Z,19.12
2018-08-31T15:41:31.753Z,19.06
2018-08-31T15:44:00.795Z,19.02
2018-08-31T15:46:29.722Z,19.12
2018-08-31T15:48:58.692Z,19.20
2018-08-31T15:51:27.580Z,19.34
2018-08-31T15:53:58.059Z,19.44
2018-08-31T15:56:28.092Z,19.48
2018-08-31T15:58:57.115Z,19.50
2018-08-31T16:01:26.073Z,19.48
2018-08-31T16:03:54.982Z,19.42
2018-08-31T16:06:23.908Z,19.40
2018-08-31T16:08:53.067Z,19.31
2018-08-31T16:11:22.035Z,19.10
2018-08-31T16:13:51.645Z,18.95
2018-08-31T16:16:20.568Z,19.00
2018-08-31T16:18:49.599Z,19.13
2018-08-31T16:21:18.492Z,19.06
2018-08-31T16:23:47.574Z,19.00
2018-08-31T16:26:16.496Z,19.06
2018-08-31T16:28:45.537Z,19.10
2018-08-31T16:31:14.519Z,19.16
2018-08-31T16:33:43.436Z,19.21
2018-08-31T16:36:12.432Z,19.21
2018-08-31T16:38:41.467Z,19.23
2018-08-31T16:41:10.429Z,19.25
2018-08-31T16:43:39.389Z,19.05
2018-08-31T16:46:08.405Z,19.17
2018-08-31T16:48:37.276Z,19.24
2018-08-31T16:51:07.751Z,19.24
2018-08-31T16:53:36.623Z,19.16
2018-08-31T16:56:06.645Z,19.22
2018-08-31T16:58:35.537Z,19.24
2018-08-31T17:01:04.443Z,19.17
2018-08-31T17:03:33.389Z,19.12
2018-08-31T17:06:02.338Z,19.04
2018-08-31T17:08:31.425Z,18.97
2018-08-31T17:11:00.455Z,18.92
2018-08-31T17:13:29.381Z,18.91
2018-08-31T17:15:58.352Z,18.91
2018-08-31T17:18:27.297Z,18.84
2018-08-31T17:20:56.253Z,18.88
2018-08-31T17:23:25.188Z,18.77
2018-08-31T17:25:54.168Z,18.74
2018-08-31T17:28:29.201Z,18.49
2018-08-31T17:31:03.414Z,18.28
2018-08-31T17:33:37.669Z,18.28
2018-08-31T17:36:11.887Z,18.30
2018-08-31T17:38:40.829Z,18.33
2018-08-31T17:41:09.705Z,18.22
2018-08-31T17:43:39.659Z,18.32
2018-08-31T17:46:08.712Z,18.24
2018-08-31T17:48:37.699Z,18.23
2018-08-31T17:51:06.721Z,18.32
2018-08-31T17:53:35.669Z,18.20
2018-08-31T17:56:04.752Z,18.22
2018-08-31T17:58:33.611Z,18.15
2018-08-31T18:01:03.361Z,18.05
2018-08-31T18:03:32.276Z,17.97
2018-08-31T18:06:01.207Z,17.94
2018-08-31T18:08:30.242Z,17.93
2018-08-31T18:11:04.604Z,17.86
2018-08-31T18:13:34.575Z,17.86
2018-08-31T18:16:15.160Z,17.68
2018-08-31T18:18:44.025Z,17.78
2018-08-31T18:21:12.912Z,17.75
2018-08-31T18:23:41.802Z,17.73
2018-08-31T18:26:10.720Z,17.76
2018-08-31T18:28:40.370Z,17.72
2018-08-31T18:31:09.340Z,17.61
2018-08-31T18:33:38.260Z,17.68
2018-08-31T18:36:07.252Z,17.69
2018-08-31T18:38:36.213Z,17.61
2018-08-31T18:41:05.203Z,17.50
2018-08-31T18:43:34.155Z,17.43
2018-08-31T18:46:03.079Z,17.45
2018-08-31T18:48:32.052Z,17.48
2018-08-31T18:51:01.088Z,17.45
2018-08-31T18:53:29.978Z,17.32
2018-08-31T18:55:58.892Z,17.27
2018-08-31T18:58:27.973Z,17.24
2018-08-31T19:00:56.953Z,17.19
2018-08-31T19:03:25.865Z,17.25
2018-08-31T19:05:54.940Z,17.26
2018-08-31T19:08:23.910Z,17.30
2018-08-31T19:10:52.857Z,17.33
2018-08-31T19:13:22.080Z,17.32
2018-08-31T19:15:51.102Z,17.28
2018-08-31T19:18:20.135Z,17.27
2018-08-31T19:20:49.030Z,17.19
2018-08-31T19:23:18.047Z,17.21
2018-08-31T19:25:46.945Z,17.24
2018-08-31T19:28:16.104Z,17.23
2018-08-31T19:30:45.592Z,17.21
2018-08-31T19:33:14.545Z,17.15
2018-08-31T19:35:43.497Z,17.13
2018-08-31T19:38:12.407Z,17.05
2018-08-31T19:40:41.462Z,17.14
2018-08-31T19:43:10.344Z,17.04
2018-08-31T19:45:39.286Z,16.97
2018-08-31T19:48:08.259Z,16.91
2018-08-31T19:50:38.296Z,16.94
2018-08-31T19:53:07.240Z,16.95
2018-08-31T19:55:36.574Z,16.95
2018-08-31T19:58:06.064Z,16.87
2018-08-31T20:00:35.124Z,16.86
2018-08-31T20:03:04.134Z,16.98
2018-08-31T20:05:33.413Z,17.00
2018-08-31T20:08:02.313Z,16.96
2018-08-31T20:10:31.272Z,16.95
2018-08-31T20:13:00.220Z,16.96
2018-08-31T20:15:29.096Z,16.93
2018-08-31T20:17:58.030Z,16.89
2018-08-31T20:20:26.976Z,16.89
2018-08-31T20:22:56.295Z,16.91
2018-08-31T20:25:25.238Z,16.88
2018-08-31T20:27:54.289Z,16.88
2018-08-31T20:30:23.271Z,16.87
2018-08-31T20:32:52.200Z,16.82
2018-08-31T20:35:21.247Z,16.82
2018-08-31T20:37:50.223Z,16.80
2018-08-31T20:40:19.305Z,16.83
2018-08-31T20:42:48.275Z,16.77
2018-08-31T20:45:17.196Z,16.82
2018-08-31T20:47:46.145Z,16.79
2018-08-31T20:50:15.099Z,16.87
2018-08-31T20:52:44.050Z,16.89
2018-08-31T20:55:13.043Z,16.86
2018-08-31T20:57:42.147Z,16.87
2018-08-31T21:00:11.120Z,16.90
2018-08-31T21:02:40.111Z,16.89
2018-08-31T21:05:09.114Z,16.92
2018-08-31T21:07:38.072Z,16.93
2018-08-31T21:10:07.071Z,16.86
2018-08-31T21:12:36.024Z,16.80
2018-08-31T21:15:05.039Z,16.79
2018-08-31T21:17:34.024Z,16.73
2018-08-31T21:20:03.127Z,16.77
2018-08-31T21:22:32.092Z,16.75
2018-08-31T21:25:01.126Z,16.68
2018-08-31T21:27:30.102Z,16.72
2018-08-31T21:29:59.056Z,16.72
2018-08-31T21:32:27.948Z,16.75
2018-08-31T21:34:57.076Z,16.72
2018-08-31T21:37:26.122Z,16.71
2018-08-31T21:39:55.071Z,16.68
2018-08-31T21:42:24.084Z,16.69
2018-08-31T21:44:53.018Z,16.71
2018-08-31T21:47:22.096Z,16.71
2018-08-31T21:49:51.107Z,16.77
2018-08-31T21:52:20.218Z,16.70
2018-08-31T21:54:49.260Z,16.73
2018-08-31T21:57:18.290Z,16.76
2018-08-31T21:59:47.321Z,16.66
2018-08-31T22:02:16.303Z,16.66
2018-08-31T22:04:45.486Z,16.68
2018-08-31T22:07:14.372Z,16.71
2018-08-31T22:09:43.331Z,16.62
2018-08-31T22:12:12.264Z,16.65
2018-08-31T22:14:41.259Z,16.59
2018-08-31T22:17:10.162Z,16.61
2018-08-31T22:19:39.073Z,16.64
2018-08-31T22:22:08.112Z,16.65
2018-08-31T22:24:37.071Z,16.64
2018-08-31T22:27:05.988Z,16.67
2018-08-31T22:29:34.936Z,16.65
2018-08-31T22:32:03.983Z,16.52
2018-08-31T22:34:33.008Z,16.51
2018-08-31T22:37:01.933Z,16.53
2018-08-31T22:39:30.900Z,16.53
2018-08-31T22:41:59.983Z,16.56
2018-08-31T22:44:28.959Z,16.57
2018-08-31T22:46:57.933Z,16.43
2018-08-31T22:49:26.881Z,16.43
2018-08-31T22:51:55.815Z,16.43
2018-08-31T22:54:24.768Z,16.37
2018-08-31T22:56:53.699Z,16.44
2018-08-31T22:59:22.643Z,16.38
2018-08-31T23:01:51.539Z,16.37
2018-08-31T23:04:20.415Z,16.38
2018-08-31T23:06:54.770Z,16.36
2018-08-31T23:09:25.560Z,16.37
2018-08-31T23:11:54.577Z,16.41
2018-08-31T23:14:23.460Z,16.41
2018-08-31T23:16:52.348Z,16.38
2018-08-31T23:19:21.244Z,16.42
2018-08-31T23:21:50.105Z,16.29
2018-08-31T23:24:19.235Z,16.24
2018-08-31T23:26:48.159Z,16.17
2018-08-31T23:29:17.080Z,16.21
2018-08-31T23:31:45.968Z,16.26
2018-08-31T23:34:14.880Z,16.29
2018-08-31T23:36:43.779Z,16.29
2018-08-31T23:39:12.714Z,16.24
2018-08-31T23:41:41.666Z,16.20
2018-08-31T23:44:10.577Z,16.23
2018-08-31T23:46:39.566Z,16.30
2018-08-31T23:49:08.490Z,16.31
2018-08-31T23:51:37.529Z,16.33
2018-08-31T23:54:06.483Z,16.30
2018-08-31T23:56:35.452Z,16.28
2018-08-31T23:59:04.375Z,16.22
